Brive-Souillac

METAR LFSL TAF LFSL
1 °C
°C
-
°C
19m
Edad
09:18:49
LT
08:18
UTC
0 ft

1.000

2.000

3.000

4.000

5.000

SCT 3.800
VFR
<?= Yii::t('app', 'Wind direction') ?> <?= Yii::t('app', 'of'); ?>
VAR
18:09
Puesta de sol
75%
Humedad
Cizalladura del viento
Cerrado/Nieve
Alcance visual RWY
Estado de la RWY
Visibilidad vert.
Visibilidad mínima
CAVOK
Tendencia
Corrección
Informe especial
1025 hPa
QNH
METAR LFSL 070800Z AUTO 00000KT 9999 SCT038 01/M03 Q1025 BECMG 12010KT
Nubes dispersas
0 kt
0 kt
09:00
VFR
10 kt
10:00
VFR
10 kt
11:00
VFR
10 kt
12:00
VFR
10 kt
13:00
VFR
10 kt
14:00
VFR
10 kt
15:00
VFR
10 kt
10 km+
Visibilidad
No
Cielo nuboso
No
Viento
metar-taf.com/LFSL

Metar-Taf.com

Decodificador visual

Nosotros y terceros seguimos tu comportamiento en Internet en nuestro sitio web con cookies. Si continúas, asumimos que estás de acuerdo con nuestra Política de cookies.